หน้าหลัก
METAR-TAF:

METAR-TAF

ท่าอากาศยาน :

Topcliffe, อังกฤษ

ละติจูด: 54-12N, ลองจิจูด: 001-23W, ความสูง: 28 ม.

การสังเกตสภาพอากาศปัจจุบัน

รายงานได้ทำขึ้นเมื่อ 29 นาทีที่แล้ว ณ เวลา 23:50 UTC
ลม 5 นอตจากตะวันตกเฉียงเหนือ
อุณหภูมิ 10°C
ความชื้น 93%
ความกดอากาศ 1021 hPa
ทัศนวิสัย 10 กม. หรือมากกว่า

METAR: EGXZ 182350Z AUTO 32005KT 9999 NCD 10/09 Q1021

เวลา: 01:19 (00:19 UTC)


TAF: หายไป

สังเกตการณ์สภาพอากาศและพยากรณ์อากาศของสนามบินมากกว่า 4000 แห่ง (รายงาน METAR และ TAF).

สถานีที่ดูได้จะแสดงไว้ด้วยจุดสีเหลืองและสีแดงบนแผนที่.

เลื่อนเมาส์ไปเหนือจุดเพื่อดูชื่อสถานี.

แล้วคลิกเพื่อดูสังเกตการณ์และการพยากรณ์สภาพอากาศ.

ในการเปลี่ยนแผนที่: คลิกที่ปุ่มสีเขียวที่มีกากบาทสีดำเพื่อซูมเข้า; ที่ปุ่มสีเขียวที่มีขีดเพื่อซูมออก; หรือที่ลูกศรสีเขียวเพื่อไปยังแผนที่ที่อยู่ติดกัน.


METAR-TAF: